Antelope, KS

9:26 AM CDT on September 19, 2014 (GMT -0500)
Marshall Army Air Field | Change Station
CLOSE
Current Station
Airport
Location: Ft Riley,
Elevation: 1063 ft
Nearby Weather Stations
4.0 Earthquake: Medford, Oklahoma (12 hours ago)  

Elev 1063 ft 39.06 °N, 96.76 °W | Updated 28 minutes ago

Clear
Clear
69 °F
Feels Like 69 °F
N
6
Wind Variable Wind from South

Today
High -- | Low -- °F
--% Chance of Precip.
Yesterday
High -- | Low -- °F
Precip. -- in
7:12 AM 7:29 PM
Waning Crescent, 19% visible
Pressure 29.96 in
Visibility 10.0 miles
Clouds Clear
Dew Point 67 °F
Humidity 93%
Rainfall 0.00 in
Snow Depth Not available.
UV 1 out of 12
Pollen 7.20 out of 12
Air Quality Not available.
Flu Activity Not available.
METAR KFRI 191358Z AUTO 18005KT 10SM CLR 21/20 A2998 RMK AO2 RAB1340E1350DZB1314E1338 SLP144 P0000 T02070196

More Conditions Fewer Conditions

Pressure 29.96 in
Visibility 10.0 miles
Clouds Clear
Dew Point 67 °F
Humidity 93%
Rainfall 0.00 in
Snow Depth Not available.
UV 1 out of 12
Pollen 7.20 out of 12
Air Quality Not available.
Flu Activity Not available.
METAR KFRI 191358Z AUTO 18005KT 10SM CLR 21/20 A2998 RMK AO2 RAB1340E1350DZB1314E1338 SLP144 P0000 T02070196

More Conditions Fewer Conditions

10-Day Weather Forecast

Almanac

Astronomy

Sep. 19, 2014 Rise Set
Actual Time 7:12 AM CDT 7:29 PM CDT
Civil Twilight 6:46 AM CDT 7:55 PM CDT
Nautical Twilight 6:15 AM CDT 8:26 PM CDT
Astronomical Twilight 5:43 AM CDT 8:58 PM CDT
Moon 3:01 AM CDT 4:56 PM CDT
Length of Visible Light 13h 09m
Length of Day
12h 16m
Tomorrow will be 2m 28s shorter.
Waning Crescent, 19% of the Moon is Illuminated
Today
Waning Crescent
Sep 24
New
Oct 1
First Quarter
Oct 8
Full
Oct 15
Last Quarter

Today's Extremes

State Highs State Lows

Community

WunderPhotos

Upload Photos

1,754,624 photos uploaded!

WunderBlogs® & News

Nearby

Snow Depth

Station Depth Elevation
No new snow has been reported.

Earthquake Activity

City Distance Mag. Time & Date
Cherokee, Oklahoma 135 miles 2.8 10:11 PM CDT
2014-09-18
Medford, Oklahoma 136 miles 4.0 8:31 PM CDT
2014-09-18
Medford, Oklahoma 131 miles 3.0 5:28 AM CDT
2014-09-18
Cherokee, Oklahoma 134 miles 2.7 2:05 PM CDT
2014-09-17
Minimum magnitude displayed is 2.5.

Coastal Water Temperatures

Place Temperature
No Stations Reporting

Nearby Weather Stations